Time,TemperatureF,DewpointF,PressureIn,WindDirection,WindDirectionDegrees,WindSpeedMPH,WindSpeedGustMPH,Humidity,HourlyPrecipIn,Conditions,Clouds,dailyrainin,SoftwareType,DateUTC
2013-05-26 00:00:00,63.9,58.3,30.18,ENE,68,0.0,3.0,82,0.00,,---,0.00,VWS V14.01,2013-05-26 04:00:00,
2013-05-26 00:30:00,65.8,59.5,30.18,ENE,68,0.0,3.0,80,0.00,,---,0.00,VWS V14.01,2013-05-26 04:30:00,
2013-05-26 01:00:00,65.9,59.6,30.17,East,90,1.0,5.0,80,0.00,,---,0.00,VWS V14.01,2013-05-26 05:00:00,
2013-05-26 01:30:00,65.6,59.6,30.17,ENE,68,1.0,4.0,81,0.00,,---,0.00,VWS V14.01,2013-05-26 05:30:00,
2013-05-26 02:00:00,64.2,59.3,30.16,ENE,68,0.0,1.0,84,0.00,,---,0.00,VWS V14.01,2013-05-26 06:00:00,
2013-05-26 02:30:00,62.7,58.5,30.16,ENE,68,0.0,1.0,86,0.00,,---,0.00,VWS V14.01,2013-05-26 06:30:00,
2013-05-26 03:00:00,63.4,59.8,30.15,East,90,0.0,3.0,88,0.00,,---,0.00,VWS V14.01,2013-05-26 07:00:00,
2013-05-26 03:30:00,64.3,59.7,30.15,East,90,0.0,3.0,85,0.00,,---,0.00,VWS V14.01,2013-05-26 07:30:00,
2013-05-26 04:00:00,62.9,58.7,30.15,ESE,112,0.0,1.0,86,0.00,,---,0.00,VWS V14.01,2013-05-26 08:00:00,
2013-05-26 04:30:00,60.6,57.3,30.15,ESE,112,0.0,1.0,89,0.00,,---,0.00,VWS V14.01,2013-05-26 08:30:00,
2013-05-26 05:00:00,59.5,56.6,30.14,ESE,112,0.0,0.0,90,0.00,,---,0.00,VWS V14.01,2013-05-26 09:00:00,
2013-05-26 05:30:00,57.5,54.9,30.15,ESE,112,0.0,0.0,91,0.00,,---,0.00,VWS V14.01,2013-05-26 09:30:00,
2013-05-26 06:00:00,56.1,54.4,30.16,ESE,112,0.0,0.0,94,0.00,,---,0.00,VWS V14.01,2013-05-26 10:00:00,
2013-05-26 06:30:00,57.5,54.9,30.15,ESE,112,0.0,0.0,91,0.00,,---,0.00,VWS V14.01,2013-05-26 10:30:00,
2013-05-26 06:38:00,55.0,53.3,30.17,ESE,107,0.0,0.0,94,0.00,,---,0.00,VWS V14.01,2013-05-26 10:38:00,
2013-05-26 06:43:00,54.9,53.5,30.17,ESE,107,0.0,0.0,95,0.00,,---,0.00,VWS V14.01,2013-05-26 10:43:00,
2013-05-26 06:48:00,54.9,53.5,30.18,ESE,107,0.0,0.0,95,0.00,,---,0.00,VWS V14.01,2013-05-26 10:48:00,
2013-05-26 06:53:00,55.1,53.7,30.18,ESE,107,0.0,0.0,95,0.00,,---,0.00,VWS V14.01,2013-05-26 10:53:00,
2013-05-26 06:58:00,55.2,53.8,30.18,ESE,107,0.0,0.0,95,0.00,,---,0.00,VWS V14.01,2013-05-26 10:58:00,
2013-05-26 07:00:00,55.3,54.2,30.18,ESE,107,0.0,0.0,96,0.00,,---,0.00,VWS V14.01,2013-05-26 11:00:00,
2013-05-26 07:03:00,55.5,54.4,30.18,ESE,107,0.0,0.0,96,0.00,,---,0.00,VWS V14.01,2013-05-26 11:03:00,
2013-05-26 07:08:00,56.1,55.3,30.18,ESE,107,0.0,0.0,97,0.00,,---,0.00,VWS V14.01,2013-05-26 11:08:00,
2013-05-26 07:14:00,56.5,55.7,30.18,ESE,107,0.0,0.0,97,0.00,,---,0.00,VWS V14.01,2013-05-26 11:14:00,
2013-05-26 07:19:00,57.3,56.5,30.19,ESE,107,0.0,0.0,97,0.00,,---,0.00,VWS V14.01,2013-05-26 11:19:00,
2013-05-26 07:24:00,57.9,57.3,30.18,ESE,107,0.0,0.0,98,0.00,,---,0.00,VWS V14.01,2013-05-26 11:24:00,
2013-05-26 07:29:00,58.5,57.9,30.19,ESE,107,0.0,0.0,98,0.00,,---,0.00,VWS V14.01,2013-05-26 11:29:00,
2013-05-26 07:30:00,58.6,57.8,30.19,ESE,107,0.0,0.0,97,0.00,,---,0.00,VWS V14.01,2013-05-26 11:30:00,
2013-05-26 07:34:00,59.2,58.6,30.19,ESE,107,0.0,0.0,98,0.00,,---,0.00,VWS V14.01,2013-05-26 11:34:00,
2013-05-26 07:39:00,60.0,59.4,30.19,ESE,107,1.0,1.0,98,0.00,,---,0.00,VWS V14.01,2013-05-26 11:39:00,
2013-05-26 07:44:00,61.0,60.4,30.19,ESE,107,0.0,1.0,98,0.00,,---,0.00,VWS V14.01,2013-05-26 11:44:00,
2013-05-26 07:49:00,61.8,61.2,30.19,ESE,107,0.0,1.0,98,0.00,,---,0.00,VWS V14.01,2013-05-26 11:49:00,
2013-05-26 07:54:00,62.8,61.9,30.19,ESE,107,1.0,1.0,97,0.00,,---,0.00,VWS V14.01,2013-05-26 11:54:00,
2013-05-26 07:59:00,63.9,62.4,30.19,ESE,107,1.0,1.0,95,0.00,,---,0.00,VWS V14.01,2013-05-26 11:59:00,
2013-05-26 08:00:00,64.0,62.5,30.19,ESE,107,0.0,1.0,95,0.00,,---,0.00,VWS V14.01,2013-05-26 12:00:00,
2013-05-26 08:04:00,65.0,63.2,30.19,ESE,107,1.0,1.0,94,0.00,,---,0.00,VWS V14.01,2013-05-26 12:04:00,
2013-05-26 08:09:00,66.0,63.3,30.20,ESE,107,1.0,3.0,91,0.00,,---,0.00,VWS V14.01,2013-05-26 12:09:00,
2013-05-26 08:14:00,66.8,63.5,30.20,ESE,107,0.0,3.0,89,0.00,,---,0.00,VWS V14.01,2013-05-26 12:14:00,
2013-05-26 08:20:00,67.4,63.4,30.20,ESE,107,0.0,3.0,87,0.00,,---,0.00,VWS V14.01,2013-05-26 12:20:00,
2013-05-26 08:25:00,68.6,63.9,30.20,ESE,107,0.0,3.0,85,0.00,,---,0.00,VWS V14.01,2013-05-26 12:25:00,
2013-05-26 08:30:00,69.6,64.2,30.20,ESE,107,0.0,3.0,83,0.00,,---,0.00,VWS V14.01,2013-05-26 12:30:00,
2013-05-26 08:35:00,70.6,64.5,30.20,ESE,107,0.0,2.0,81,0.00,,---,0.00,VWS V14.01,2013-05-26 12:35:00,
2013-05-26 08:40:00,71.5,64.3,30.20,SSE,153,0.0,3.0,78,0.00,,---,0.00,VWS V14.01,2013-05-26 12:40:00,
2013-05-26 08:45:00,72.4,64.8,30.20,SSE,152,0.0,3.0,77,0.00,,---,0.00,VWS V14.01,2013-05-26 12:45:00,
2013-05-26 08:50:00,73.4,64.6,30.20,SE,145,1.0,3.0,74,0.00,,---,0.00,VWS V14.01,2013-05-26 12:50:00,
2013-05-26 08:55:00,74.2,64.6,30.20,SE,145,0.0,3.0,72,0.00,,---,0.00,VWS V14.01,2013-05-26 12:55:00,
2013-05-26 09:00:00,74.9,64.1,30.20,ESE,108,2.0,3.0,69,0.00,,---,0.00,VWS V14.01,2013-05-26 13:00:00,
2013-05-26 09:05:00,75.4,63.3,30.20,ESE,107,2.0,3.0,66,0.00,,---,0.00,VWS V14.01,2013-05-26 13:05:00,
2013-05-26 09:10:00,75.7,62.2,30.20,ENE,63,2.0,7.0,63,0.00,,---,0.00,VWS V14.01,2013-05-26 13:10:00,
2013-05-26 09:15:00,75.5,62.0,30.20,SE,127,1.0,7.0,63,0.00,,---,0.00,VWS V14.01,2013-05-26 13:15:00,
2013-05-26 09:20:00,75.5,62.9,30.20,SE,130,2.0,7.0,65,0.00,,---,0.00,VWS V14.01,2013-05-26 13:20:00,
2013-05-26 09:25:00,75.7,61.3,30.20,ESE,117,1.0,7.0,61,0.00,,---,0.00,VWS V14.01,2013-05-26 13:25:00,
2013-05-26 09:30:00,75.6,60.8,30.20,SSE,152,2.0,4.0,60,0.00,,---,0.00,VWS V14.01,2013-05-26 13:30:00,
2013-05-26 09:35:00,75.7,61.3,30.20,SE,125,3.0,6.0,61,0.00,,---,0.00,VWS V14.01,2013-05-26 13:35:00,
2013-05-26 09:40:00,76.2,62.2,30.21,SE,126,2.0,6.0,62,0.00,,---,0.00,VWS V14.01,2013-05-26 13:40:00,
2013-05-26 09:45:00,76.4,61.5,30.20,ESE,111,1.0,6.0,60,0.00,,---,0.00,VWS V14.01,2013-05-26 13:45:00,
2013-05-26 09:50:00,76.4,62.0,30.20,SE,133,4.0,6.0,61,0.00,,---,0.00,VWS V14.01,2013-05-26 13:50:00,
2013-05-26 09:55:00,77.0,62.1,30.20,ESE,121,1.0,6.0,60,0.00,,---,0.00,VWS V14.01,2013-05-26 13:55:00,
2013-05-26 10:00:00,77.3,60.4,30.20,East,101,1.0,2.0,56,0.00,,---,0.00,VWS V14.01,2013-05-26 14:00:00,
2013-05-26 10:05:00,77.6,59.7,30.21,ENE,63,3.0,6.0,54,0.00,,---,0.00,VWS V14.01,2013-05-26 14:05:00,
2013-05-26 10:10:00,78.0,60.5,30.20,ENE,69,3.0,6.0,55,0.00,,---,0.00,VWS V14.01,2013-05-26 14:10:00,
2013-05-26 10:15:00,78.3,59.8,30.20,ESE,114,3.0,6.0,53,0.00,,---,0.00,VWS V14.01,2013-05-26 14:15:00,
2013-05-26 10:20:00,78.4,59.9,30.20,East,85,3.0,8.0,53,0.00,,---,0.00,VWS V14.01,2013-05-26 14:20:00,
2013-05-26 10:26:00,78.5,60.5,30.20,ESE,114,4.0,8.0,54,0.00,,---,0.00,VWS V14.01,2013-05-26 14:26:00,
2013-05-26 10:30:00,78.8,59.2,30.21,East,94,1.0,8.0,51,0.00,,---,0.00,VWS V14.01,2013-05-26 14:30:00,
2013-05-26 10:31:00,78.8,59.2,30.21,ESE,109,4.0,4.0,51,0.00,,---,0.00,VWS V14.01,2013-05-26 14:31:00,
2013-05-26 10:36:00,79.0,59.3,30.21,ESE,106,2.0,6.0,51,0.00,,---,0.00,VWS V14.01,2013-05-26 14:36:00,
2013-05-26 10:41:00,78.9,59.2,30.21,ENE,57,1.0,6.0,51,0.00,,---,0.00,VWS V14.01,2013-05-26 14:41:00,
2013-05-26 10:46:00,79.0,59.9,30.21,ENE,65,4.0,9.0,52,0.00,,---,0.00,VWS V14.01,2013-05-26 14:46:00,
2013-05-26 10:51:00,79.1,60.0,30.21,ESE,117,1.0,9.0,52,0.00,,---,0.00,VWS V14.01,2013-05-26 14:51:00,
2013-05-26 10:56:00,79.5,59.2,30.21,SE,132,2.0,9.0,50,0.00,,---,0.00,VWS V14.01,2013-05-26 14:56:00,
2013-05-26 11:00:00,79.2,60.1,30.20,SSE,151,6.0,9.0,52,0.00,,---,0.00,VWS V14.01,2013-05-26 15:00:00,
2013-05-26 11:01:00,79.2,61.1,30.20,SE,140,5.0,6.0,54,0.00,,---,0.00,VWS V14.01,2013-05-26 15:01:00,
2013-05-26 11:06:00,78.9,60.9,30.20,SE,133,3.0,6.0,54,0.00,,---,0.00,VWS V14.01,2013-05-26 15:06:00,
2013-05-26 11:11:00,79.1,60.5,30.20,SSE,150,2.0,6.0,53,0.00,,---,0.00,VWS V14.01,2013-05-26 15:11:00,
2013-05-26 11:16:00,79.5,59.8,30.20,SSE,162,5.0,8.0,51,0.00,,---,0.00,VWS V14.01,2013-05-26 15:16:00,
2013-05-26 11:21:00,79.5,60.3,30.20,SE,134,5.0,8.0,52,0.00,,---,0.00,VWS V14.01,2013-05-26 15:21:00,
2013-05-26 11:26:00,80.0,60.3,30.20,ESE,103,2.0,8.0,51,0.00,,---,0.00,VWS V14.01,2013-05-26 15:26:00,
2013-05-26 11:30:00,80.3,60.5,30.20,ESE,107,3.0,8.0,51,0.00,,---,0.00,VWS V14.01,2013-05-26 15:30:00,
2013-05-26 11:31:00,80.3,59.4,30.20,ESE,106,5.0,7.0,49,0.00,,---,0.00,VWS V14.01,2013-05-26 15:31:00,
2013-05-26 11:37:00,80.6,59.7,30.20,ESE,106,5.0,7.0,49,0.00,,---,0.00,VWS V14.01,2013-05-26 15:37:00,
2013-05-26 11:42:00,80.7,60.9,30.20,ESE,107,3.0,7.0,51,0.00,,---,0.00,VWS V14.01,2013-05-26 15:42:00,
2013-05-26 11:47:00,81.0,59.5,30.20,East,82,5.0,7.0,48,0.00,,---,0.00,VWS V14.01,2013-05-26 15:47:00,
2013-05-26 11:52:00,81.2,59.1,30.20,SE,136,2.0,7.0,47,0.00,,---,0.00,VWS V14.01,2013-05-26 15:52:00,
2013-05-26 11:57:00,81.1,60.2,30.20,SSE,164,3.0,7.0,49,0.00,,---,0.00,VWS V14.01,2013-05-26 15:57:00,
2013-05-26 12:00:00,81.1,59.6,30.20,East,101,5.0,7.0,48,0.00,,---,0.00,VWS V14.01,2013-05-26 16:00:00,
2013-05-26 12:02:00,81.2,61.4,30.20,East,94,2.0,6.0,51,0.00,,---,0.00,VWS V14.01,2013-05-26 16:02:00,
2013-05-26 12:07:00,81.7,59.5,30.20,East,84,0.0,6.0,47,0.00,,---,0.00,VWS V14.01,2013-05-26 16:07:00,
2013-05-26 12:12:00,82.0,61.0,30.20,East,91,0.0,6.0,49,0.00,,---,0.00,VWS V14.01,2013-05-26 16:12:00,
2013-05-26 12:17:00,82.0,58.6,30.20,NE,54,4.0,6.0,45,0.00,,---,0.00,VWS V14.01,2013-05-26 16:17:00,
2013-05-26 12:22:00,81.9,59.1,30.20,ENE,78,3.0,7.0,46,0.00,,---,0.00,VWS V14.01,2013-05-26 16:22:00,
2013-05-26 12:27:00,81.9,58.5,30.20,SSE,157,4.0,7.0,45,0.00,,---,0.00,VWS V14.01,2013-05-26 16:27:00,
2013-05-26 12:30:00,81.9,60.3,30.20,East,97,5.0,7.0,48,0.00,,---,0.00,VWS V14.01,2013-05-26 16:30:00,
2013-05-26 12:32:00,82.0,59.8,30.20,ENE,62,3.0,5.0,47,0.00,,---,0.00,VWS V14.01,2013-05-26 16:32:00,
2013-05-26 12:37:00,82.3,59.5,30.20,ESE,114,2.0,10.0,46,0.00,,---,0.00,VWS V14.01,2013-05-26 16:37:00,
2013-05-26 12:42:00,82.3,60.1,30.19,East,90,1.0,10.0,47,0.00,,---,0.00,VWS V14.01,2013-05-26 16:42:00,
2013-05-26 12:48:00,82.6,59.8,30.20,East,90,2.0,2.0,46,0.00,,---,0.00,VWS V14.01,2013-05-26 16:48:00,
2013-05-26 12:53:00,82.4,60.2,30.19,NNW,338,2.0,4.0,47,0.00,,---,0.00,VWS V14.01,2013-05-26 16:53:00,
2013-05-26 12:58:00,82.4,57.7,30.19,SSE,161,4.0,7.0,43,0.00,,---,0.00,VWS V14.01,2013-05-26 16:58:00,
2013-05-26 13:00:00,82.3,59.5,30.19,SE,130,1.0,7.0,46,0.00,,---,0.00,VWS V14.01,2013-05-26 17:00:00,
2013-05-26 13:03:00,82.3,60.1,30.19,ENE,67,4.0,4.0,47,0.00,,---,0.00,VWS V14.01,2013-05-26 17:03:00,
2013-05-26 13:08:00,82.7,58.0,30.19,SE,134,0.0,5.0,43,0.00,,---,0.00,VWS V14.01,2013-05-26 17:08:00,
2013-05-26 13:13:00,82.8,60.5,30.19,East,90,6.0,7.0,47,0.00,,---,0.00,VWS V14.01,2013-05-26 17:13:00,
2013-05-26 13:18:00,83.3,57.2,30.19,ENE,61,1.0,8.0,41,0.00,,---,0.00,VWS V14.01,2013-05-26 17:18:00,
2013-05-26 13:23:00,83.4,59.2,30.19,NE,53,5.0,11.0,44,0.00,,---,0.00,VWS V14.01,2013-05-26 17:23:00,
2013-05-26 13:28:00,83.4,59.8,30.18,NE,55,5.0,11.0,45,0.00,,---,0.00,VWS V14.01,2013-05-26 17:28:00,
2013-05-26 13:30:00,83.6,58.1,30.18,North,9,4.0,11.0,42,0.00,,---,0.00,VWS V14.01,2013-05-26 17:30:00,
2013-05-26 13:33:00,83.9,57.7,30.18,ENE,76,4.0,8.0,41,0.00,,---,0.00,VWS V14.01,2013-05-26 17:33:00,
2013-05-26 13:38:00,84.0,58.5,30.18,East,82,1.0,8.0,42,0.00,,---,0.00,VWS V14.01,2013-05-26 17:38:00,
2013-05-26 13:43:00,84.4,56.0,30.18,East,83,3.0,8.0,38,0.00,,---,0.00,VWS V14.01,2013-05-26 17:43:00,
2013-05-26 13:48:00,84.2,52.8,30.18,North,360,7.0,8.0,34,0.00,,---,0.00,VWS V14.01,2013-05-26 17:48:00,
2013-05-26 13:53:00,84.3,56.0,30.17,NE,37,3.0,8.0,38,0.00,,---,0.00,VWS V14.01,2013-05-26 17:53:00,
2013-05-26 13:58:00,84.6,58.3,30.17,NE,37,1.0,8.0,41,0.00,,---,0.00,VWS V14.01,2013-05-26 17:58:00,
2013-05-26 14:00:00,84.7,58.4,30.17,NNE,29,1.0,8.0,41,0.00,,---,0.00,VWS V14.01,2013-05-26 18:00:00,
2013-05-26 14:03:00,85.0,55.8,30.18,ENE,76,4.0,9.0,37,0.00,,---,0.00,VWS V14.01,2013-05-26 18:03:00,
2013-05-26 14:09:00,85.1,58.1,30.17,ENE,57,5.0,9.0,40,0.00,,---,0.00,VWS V14.01,2013-05-26 18:09:00,
2013-05-26 14:14:00,85.1,59.5,30.17,ENE,67,5.0,9.0,42,0.00,,---,0.00,VWS V14.01,2013-05-26 18:14:00,
2013-05-26 14:19:00,85.2,58.9,30.17,ENE,67,5.0,11.0,41,0.00,,---,0.00,VWS V14.01,2013-05-26 18:19:00,
2013-05-26 14:24:00,85.2,58.9,30.17,East,84,6.0,11.0,41,0.00,,---,0.00,VWS V14.01,2013-05-26 18:24:00,
2013-05-26 14:29:00,85.2,57.5,30.17,ENE,58,8.0,11.0,39,0.00,,---,0.00,VWS V14.01,2013-05-26 18:29:00,
2013-05-26 14:30:00,85.2,59.5,30.17,East,96,2.0,11.0,42,0.00,,---,0.00,VWS V14.01,2013-05-26 18:30:00,
2013-05-26 14:34:00,85.3,59.0,30.17,ENE,63,4.0,5.0,41,0.00,,---,0.00,VWS V14.01,2013-05-26 18:34:00,
2013-05-26 14:39:00,85.6,59.9,30.16,East,91,6.0,8.0,42,0.00,,---,0.00,VWS V14.01,2013-05-26 18:39:00,
2013-05-26 14:44:00,85.6,58.5,30.16,NE,51,3.0,8.0,40,0.00,,---,0.00,VWS V14.01,2013-05-26 18:44:00,
2013-05-26 14:49:00,85.8,58.0,30.16,ENE,70,3.0,12.0,39,0.00,,---,0.00,VWS V14.01,2013-05-26 18:49:00,
2013-05-26 14:54:00,85.7,59.3,30.16,East,87,2.0,12.0,41,0.00,,---,0.00,VWS V14.01,2013-05-26 18:54:00,
2013-05-26 14:59:00,86.1,58.3,30.16,East,98,1.0,12.0,39,0.00,,---,0.00,VWS V14.01,2013-05-26 18:59:00,
2013-05-26 15:00:00,86.1,56.8,30.16,East,98,0.0,12.0,37,0.00,,---,0.00,VWS V14.01,2013-05-26 19:00:00,
2013-05-26 15:04:00,86.0,57.5,30.16,East,83,2.0,5.0,38,0.00,,---,0.00,VWS V14.01,2013-05-26 19:04:00,
2013-05-26 15:09:00,85.6,57.8,30.16,East,101,1.0,7.0,39,0.00,,---,0.00,VWS V14.01,2013-05-26 19:09:00,
2013-05-26 15:14:00,85.1,57.4,30.16,ENE,63,2.0,9.0,39,0.00,,---,0.00,VWS V14.01,2013-05-26 19:14:00,
2013-05-26 15:19:00,85.2,57.5,30.16,ESE,102,2.0,9.0,39,0.00,,---,0.00,VWS V14.01,2013-05-26 19:19:00,
2013-05-26 15:24:00,85.2,56.8,30.15,NE,36,0.0,9.0,38,0.00,,---,0.00,VWS V14.01,2013-05-26 19:24:00,
2013-05-26 15:29:00,85.1,55.9,30.15,NE,36,0.0,9.0,37,0.00,,---,0.00,VWS V14.01,2013-05-26 19:29:00,
2013-05-26 15:30:00,85.1,58.1,30.15,NE,36,0.0,9.0,40,0.00,,---,0.00,VWS V14.01,2013-05-26 19:30:00,
2013-05-26 15:34:00,85.4,56.9,30.15,ENE,72,2.0,5.0,38,0.00,,---,0.00,VWS V14.01,2013-05-26 19:34:00,
2013-05-26 15:39:00,85.8,56.5,30.15,ENE,65,3.0,7.0,37,0.00,,---,0.00,VWS V14.01,2013-05-26 19:39:00,
2013-05-26 15:44:00,86.5,57.2,30.15,ENE,70,1.0,8.0,37,0.00,,---,0.00,VWS V14.01,2013-05-26 19:44:00,
2013-05-26 15:49:00,86.7,55.0,30.15,ENE,61,0.0,10.0,34,0.00,,---,0.00,VWS V14.01,2013-05-26 19:49:00,
2013-05-26 15:54:00,86.9,59.0,30.14,ESE,117,3.0,10.0,39,0.00,,---,0.00,VWS V14.01,2013-05-26 19:54:00,
2013-05-26 15:59:00,86.4,57.1,30.14,SE,131,1.0,10.0,37,0.00,,---,0.00,VWS V14.01,2013-05-26 19:59:00,
2013-05-26 16:00:00,86.4,58.5,30.14,SE,131,1.0,10.0,39,0.00,,---,0.00,VWS V14.01,2013-05-26 20:00:00,
2013-05-26 16:04:00,86.6,58.7,30.14,North,10,3.0,7.0,39,0.00,,---,0.00,VWS V14.01,2013-05-26 20:04:00,
2013-05-26 16:13:00,87.0,58.3,30.14,NE,54,4.0,4.0,38,0.00,,---,0.00,VWS V14.01,2013-05-26 20:13:00,
2013-05-26 16:18:00,86.5,57.9,30.14,ENE,65,8.0,13.0,38,0.00,,---,0.00,VWS V14.01,2013-05-26 20:18:00,
2013-05-26 16:23:00,85.5,57.0,30.14,ENE,64,4.0,13.0,38,0.00,,---,0.00,VWS V14.01,2013-05-26 20:23:00,
2013-05-26 16:28:00,84.7,57.0,30.13,ENE,60,7.0,13.0,39,0.00,,---,0.00,VWS V14.01,2013-05-26 20:28:00,
2013-05-26 16:30:00,84.6,57.6,30.13,ENE,63,8.0,13.0,40,0.00,,---,0.00,VWS V14.01,2013-05-26 20:30:00,
2013-05-26 16:33:00,84.3,57.4,30.13,ENE,58,4.0,8.0,40,0.00,,---,0.00,VWS V14.01,2013-05-26 20:33:00,
2013-05-26 16:38:00,84.1,58.5,30.13,ENE,66,4.0,8.0,42,0.00,,---,0.00,VWS V14.01,2013-05-26 20:38:00,
2013-05-26 16:43:00,84.3,58.7,30.13,ESE,103,4.0,8.0,42,0.00,,---,0.00,VWS V14.01,2013-05-26 20:43:00,
2013-05-26 16:48:00,84.7,59.1,30.13,East,82,5.0,8.0,42,0.00,,---,0.00,VWS V14.01,2013-05-26 20:48:00,
2013-05-26 16:53:00,84.4,59.5,30.13,East,92,6.0,8.0,43,0.00,,---,0.00,VWS V14.01,2013-05-26 20:53:00,
2013-05-26 16:58:00,84.2,58.6,30.13,East,98,3.0,8.0,42,0.00,,---,0.00,VWS V14.01,2013-05-26 20:58:00,
2013-05-26 17:00:00,84.1,60.5,30.12,ENE,71,4.0,8.0,45,0.00,,---,0.00,VWS V14.01,2013-05-26 21:00:00,
2013-05-26 17:03:00,83.9,58.4,30.13,ENE,69,4.0,8.0,42,0.00,,---,0.00,VWS V14.01,2013-05-26 21:03:00,
2013-05-26 17:08:00,83.7,60.1,30.13,ENE,72,1.0,8.0,45,0.00,,---,0.00,VWS V14.01,2013-05-26 21:08:00,
2013-05-26 17:13:00,83.6,58.8,30.13,ENE,74,7.0,8.0,43,0.00,,---,0.00,VWS V14.01,2013-05-26 21:13:00,
2013-05-26 17:18:00,83.4,59.8,30.12,East,97,5.0,10.0,45,0.00,,---,0.00,VWS V14.01,2013-05-26 21:18:00,
2013-05-26 17:23:00,83.3,59.8,30.13,East,101,1.0,10.0,45,0.00,,---,0.00,VWS V14.01,2013-05-26 21:23:00,
2013-05-26 17:28:00,83.1,59.0,30.13,East,98,2.0,10.0,44,0.00,,---,0.00,VWS V14.01,2013-05-26 21:28:00,
2013-05-26 17:30:00,83.1,59.0,30.12,East,97,2.0,10.0,44,0.00,,---,0.00,VWS V14.01,2013-05-26 21:30:00,
2013-05-26 17:33:00,83.0,59.5,30.12,ESE,103,1.0,5.0,45,0.00,,---,0.00,VWS V14.01,2013-05-26 21:33:00,
2013-05-26 17:38:00,82.9,58.1,30.12,East,86,3.0,7.0,43,0.00,,---,0.00,VWS V14.01,2013-05-26 21:38:00,
2013-05-26 17:43:00,82.7,58.6,30.12,ENE,67,3.0,7.0,44,0.00,,---,0.00,VWS V14.01,2013-05-26 21:43:00,
2013-05-26 17:48:00,82.7,58.6,30.12,East,94,1.0,7.0,44,0.00,,---,0.00,VWS V14.01,2013-05-26 21:48:00,
2013-05-26 17:53:00,82.6,59.1,30.12,East,100,0.0,7.0,45,0.00,,---,0.00,VWS V14.01,2013-05-26 21:53:00,
2013-05-26 17:58:00,82.5,59.7,30.12,SE,136,3.0,7.0,46,0.00,,---,0.00,VWS V14.01,2013-05-26 21:58:00,
2013-05-26 18:00:00,82.4,60.8,30.12,ESE,115,4.0,7.0,48,0.00,,---,0.00,VWS V14.01,2013-05-26 22:00:00,
2013-05-26 18:03:00,82.1,59.9,30.12,East,90,6.0,6.0,47,0.00,,---,0.00,VWS V14.01,2013-05-26 22:03:00,
2013-05-26 18:08:00,81.7,60.1,30.12,ESE,113,2.0,7.0,48,0.00,,---,0.00,VWS V14.01,2013-05-26 22:08:00,
2013-05-26 18:14:00,81.5,59.9,30.12,East,93,5.0,8.0,48,0.00,,---,0.00,VWS V14.01,2013-05-26 22:14:00,
2013-05-26 18:20:00,81.5,59.9,30.12,ESE,110,3.0,8.0,48,0.00,,---,0.00,VWS V14.01,2013-05-26 22:20:00,
2013-05-26 18:25:00,81.6,60.0,30.12,East,87,7.0,8.0,48,0.00,,---,0.00,VWS V14.01,2013-05-26 22:25:00,
2013-05-26 18:30:00,81.7,59.5,30.12,East,88,5.0,5.0,47,0.00,,---,0.00,VWS V14.01,2013-05-26 22:30:00,
2013-05-26 18:35:00,81.7,60.1,30.12,East,90,7.0,7.0,48,0.00,,---,0.00,VWS V14.01,2013-05-26 22:35:00,
2013-05-26 18:40:00,81.6,60.0,30.12,East,94,3.0,9.0,48,0.00,,---,0.00,VWS V14.01,2013-05-26 22:40:00,
2013-05-26 18:45:00,81.5,59.9,30.12,ESE,102,4.0,9.0,48,0.00,,---,0.00,VWS V14.01,2013-05-26 22:45:00,
2013-05-26 18:50:00,81.2,60.2,30.12,ESE,123,4.0,9.0,49,0.00,,---,0.00,VWS V14.01,2013-05-26 22:50:00,
2013-05-26 18:55:00,80.8,59.3,30.12,East,94,2.0,9.0,48,0.00,,---,0.00,VWS V14.01,2013-05-26 22:55:00,
2013-05-26 19:00:00,80.5,60.2,30.12,ESE,106,5.0,5.0,50,0.00,,---,0.00,VWS V14.01,2013-05-26 23:00:00,
2013-05-26 19:05:00,80.3,60.0,30.13,East,93,2.0,9.0,50,0.00,,---,0.00,VWS V14.01,2013-05-26 23:05:00,
2013-05-26 19:10:00,80.2,58.8,30.13,East,97,7.0,9.0,48,0.00,,---,0.00,VWS V14.01,2013-05-26 23:10:00,
2013-05-26 19:15:00,80.0,59.1,30.13,ESE,123,12.0,12.0,49,0.00,,---,0.00,VWS V14.01,2013-05-26 23:15:00,
2013-05-26 19:20:00,79.7,59.4,30.13,ESE,113,4.0,12.0,50,0.00,,---,0.00,VWS V14.01,2013-05-26 23:20:00,
2013-05-26 19:25:00,79.5,59.8,30.13,ESE,107,4.0,12.0,51,0.00,,---,0.00,VWS V14.01,2013-05-26 23:25:00,
2013-05-26 19:30:00,79.2,59.0,30.13,East,98,3.0,6.0,50,0.00,,---,0.00,VWS V14.01,2013-05-26 23:30:00,
2013-05-26 19:35:00,79.0,58.8,30.13,East,86,5.0,7.0,50,0.00,,---,0.00,VWS V14.01,2013-05-26 23:35:00,
2013-05-26 19:40:00,78.8,58.6,30.14,East,100,1.0,7.0,50,0.00,,---,0.00,VWS V14.01,2013-05-26 23:40:00,
2013-05-26 19:45:00,78.5,58.3,30.14,ENE,76,5.0,7.0,50,0.00,,---,0.00,VWS V14.01,2013-05-26 23:45:00,
2013-05-26 19:50:00,78.2,57.5,30.14,ESE,117,7.0,8.0,49,0.00,,---,0.00,VWS V14.01,2013-05-26 23:50:00,
2013-05-26 19:55:00,77.7,57.6,30.14,East,98,2.0,8.0,50,0.00,,---,0.00,VWS V14.01,2013-05-26 23:55:00,
2013-05-26 20:00:00,77.3,57.8,30.14,East,85,2.0,8.0,51,0.00,,---,0.00,VWS V14.01,2013-05-27 00:00:00,
2013-05-26 20:01:00,77.2,57.7,30.14,East,81,3.0,5.0,51,0.00,,---,0.00,VWS V14.01,2013-05-27 00:01:00,
2013-05-26 20:06:00,76.7,57.8,30.14,East,93,3.0,5.0,52,0.00,,---,0.00,VWS V14.01,2013-05-27 00:06:00,
2013-05-26 20:11:00,76.1,57.8,30.14,East,94,3.0,8.0,53,0.00,,---,0.00,VWS V14.01,2013-05-27 00:11:00,
2013-05-26 20:16:00,75.7,57.9,30.15,ESE,105,2.0,8.0,54,0.00,,---,0.00,VWS V14.01,2013-05-27 00:16:00,
2013-05-26 20:21:00,75.3,58.0,30.15,East,90,2.0,8.0,55,0.00,,---,0.00,VWS V14.01,2013-05-27 00:21:00,
2013-05-26 20:26:00,74.9,58.7,30.15,East,82,1.0,8.0,57,0.00,,---,0.00,VWS V14.01,2013-05-27 00:26:00,
2013-05-26 20:30:00,79.3,59.1,30.13,East,79,6.0,12.0,50,0.00,,---,0.00,VWS V14.01,2013-05-27 00:30:00,
2013-05-26 20:32:00,74.7,59.0,30.15,ESE,109,2.0,8.0,58,0.00,,---,0.00,VWS V14.01,2013-05-27 00:32:00,
2013-05-26 20:37:00,74.0,58.8,30.15,ESE,105,1.0,8.0,59,0.00,,---,0.00,VWS V14.01,2013-05-27 00:37:00,
2013-05-26 20:42:00,73.7,59.0,30.15,ESE,115,1.0,8.0,60,0.00,,---,0.00,VWS V14.01,2013-05-27 00:42:00,
2013-05-26 20:47:00,73.4,59.2,30.15,ESE,109,1.0,8.0,61,0.00,,---,0.00,VWS V14.01,2013-05-27 00:47:00,
2013-05-26 20:52:00,73.0,59.2,30.15,ESE,109,2.0,8.0,62,0.00,,---,0.00,VWS V14.01,2013-05-27 00:52:00,
2013-05-26 20:57:00,72.6,59.3,30.15,East,101,0.0,8.0,63,0.00,,---,0.00,VWS V14.01,2013-05-27 00:57:00,
2013-05-26 21:00:00,72.6,59.3,30.15,East,101,1.0,8.0,63,0.00,,---,0.00,VWS V14.01,2013-05-27 01:00:00,
2013-05-26 21:02:00,72.5,59.6,30.15,East,92,1.0,3.0,64,0.00,,---,0.00,VWS V14.01,2013-05-27 01:02:00,
2013-05-26 21:07:00,72.3,59.5,30.15,East,93,2.0,3.0,64,0.00,,---,0.00,VWS V14.01,2013-05-27 01:07:00,
2013-05-26 21:12:00,72.0,59.6,30.15,East,93,2.0,3.0,65,0.00,,---,0.00,VWS V14.01,2013-05-27 01:12:00,
2013-05-26 21:17:00,71.7,59.8,30.15,East,93,1.0,3.0,66,0.00,,---,0.00,VWS V14.01,2013-05-27 01:17:00,
2013-05-26 21:22:00,71.3,59.8,30.15,East,88,0.0,3.0,67,0.00,,---,0.00,VWS V14.01,2013-05-27 01:22:00,
2013-05-26 21:27:00,71.0,59.9,30.16,East,88,2.0,3.0,68,0.00,,---,0.00,VWS V14.01,2013-05-27 01:27:00,
2013-05-26 21:30:00,70.9,59.8,30.16,ESE,102,1.0,5.0,68,0.00,,---,0.00,VWS V14.01,2013-05-27 01:30:00,
2013-05-26 21:32:00,70.8,60.1,30.15,ESE,102,0.0,2.0,69,0.00,,---,0.00,VWS V14.01,2013-05-27 01:32:00,
2013-05-26 21:38:00,70.6,60.0,30.16,East,94,1.0,2.0,69,0.00,,---,0.00,VWS V14.01,2013-05-27 01:38:00,
2013-05-26 21:43:00,70.5,60.3,30.16,East,98,2.0,3.0,70,0.00,,---,0.00,VWS V14.01,2013-05-27 01:43:00,
2013-05-26 21:48:00,70.4,60.2,30.15,ESE,111,1.0,3.0,70,0.00,,---,0.00,VWS V14.01,2013-05-27 01:48:00,
2013-05-26 21:53:00,70.2,60.4,30.15,ESE,110,0.0,3.0,71,0.00,,---,0.00,VWS V14.01,2013-05-27 01:53:00,
2013-05-26 21:58:00,69.9,60.5,30.16,ESE,110,1.0,3.0,72,0.00,,---,0.00,VWS V14.01,2013-05-27 01:58:00,
2013-05-26 22:00:00,69.8,60.4,30.16,ESE,110,0.0,3.0,72,0.00,,---,0.00,VWS V14.01,2013-05-27 02:00:00,
2013-05-26 22:03:00,69.7,60.3,30.16,ESE,110,1.0,1.0,72,0.00,,---,0.00,VWS V14.01,2013-05-27 02:03:00,
2013-05-26 22:08:00,69.4,60.4,30.16,ESE,110,1.0,2.0,73,0.00,,---,0.00,VWS V14.01,2013-05-27 02:08:00,
2013-05-26 22:13:00,69.1,60.5,30.16,ESE,110,0.0,2.0,74,0.00,,---,0.00,VWS V14.01,2013-05-27 02:13:00,
2013-05-26 22:18:00,68.8,60.2,30.16,ESE,110,0.0,2.0,74,0.00,,---,0.00,VWS V14.01,2013-05-27 02:18:00,
2013-05-26 22:23:00,68.5,60.3,30.16,ESE,110,0.0,2.0,75,0.00,,---,0.00,VWS V14.01,2013-05-27 02:23:00,
2013-05-26 22:28:00,68.2,60.3,30.16,ESE,110,0.0,2.0,76,0.00,,---,0.00,VWS V14.01,2013-05-27 02:28:00,
2013-05-26 22:30:00,68.1,60.3,30.16,ESE,110,0.0,2.0,76,0.00,,---,0.00,VWS V14.01,2013-05-27 02:30:00,
2013-05-26 22:33:00,67.9,60.1,30.16,ESE,110,0.0,0.0,76,0.00,,---,0.00,VWS V14.01,2013-05-27 02:33:00,
2013-05-26 22:38:00,67.7,60.2,30.17,ESE,110,0.0,2.0,77,0.00,,---,0.00,VWS V14.01,2013-05-27 02:38:00,
2013-05-26 22:43:00,67.4,60.3,30.17,ESE,110,0.0,2.0,78,0.00,,---,0.00,VWS V14.01,2013-05-27 02:43:00,
2013-05-26 22:51:00,67.1,60.4,30.17,ESE,110,0.0,0.0,79,0.00,,---,0.00,VWS V14.01,2013-05-27 02:51:00,
2013-05-26 22:56:00,67.2,60.5,30.17,ESE,110,2.0,3.0,79,0.00,,---,0.00,VWS V14.01,2013-05-27 02:56:00,
2013-05-26 23:00:00,67.3,60.6,30.17,ESE,110,0.0,3.0,79,0.00,,---,0.00,VWS V14.01,2013-05-27 03:00:00,
2013-05-26 23:01:00,67.3,60.6,30.17,ESE,110,0.0,3.0,79,0.00,,---,0.00,VWS V14.01,2013-05-27 03:01:00,
2013-05-26 23:06:00,67.5,60.8,30.18,ESE,110,0.0,3.0,79,0.00,,---,0.00,VWS V14.01,2013-05-27 03:06:00,
2013-05-26 23:11:00,67.6,60.5,30.18,ESE,110,0.0,3.0,78,0.00,,---,0.00,VWS V14.01,2013-05-27 03:11:00,
2013-05-26 23:16:00,67.6,60.5,30.18,ESE,110,0.0,3.0,78,0.00,,---,0.00,VWS V14.01,2013-05-27 03:16:00,
2013-05-26 23:21:00,67.3,60.6,30.18,ESE,110,0.0,3.0,79,0.00,,---,0.00,VWS V14.01,2013-05-27 03:21:00,
2013-05-26 23:26:00,67.1,60.7,30.18,ESE,110,0.0,3.0,80,0.00,,---,0.00,VWS V14.01,2013-05-27 03:26:00,
2013-05-26 23:30:00,66.9,60.5,30.18,ESE,110,0.0,3.0,80,0.00,,---,0.00,VWS V14.01,2013-05-27 03:30:00,
2013-05-26 23:31:00,66.8,60.4,30.18,ESE,110,0.0,1.0,80,0.00,,---,0.00,VWS V14.01,2013-05-27 03:31:00,
2013-05-26 23:36:00,66.6,60.2,30.18,ESE,110,0.0,1.0,80,0.00,,---,0.00,VWS V14.01,2013-05-27 03:36:00,
2013-05-26 23:41:00,66.4,60.4,30.18,ESE,110,0.0,1.0,81,0.00,,---,0.00,VWS V14.01,2013-05-27 03:41:00,
2013-05-26 23:46:00,66.1,60.1,30.18,ESE,110,0.0,1.0,81,0.00,,---,0.00,VWS V14.01,2013-05-27 03:46:00,
2013-05-26 23:52:00,65.9,59.9,30.18,ESE,110,0.0,1.0,81,0.00,,---,0.00,VWS V14.01,2013-05-27 03:52:00,
2013-05-26 23:59:00,65.4,60.1,30.17,ESE,110,0.0,1.0,83,0.00,,---,0.00,VWS V14.01,2013-05-27 03:59:00,